Time;durP1;ratioP1;P1;durP2;ratioP2;P2;SDS_P1;SDS_P2;PMS_P1;PMS_P2;Temp;Humidity;BMP_temperature;BMP_pressure;BME280_temperature;BME280_humidity;BME280_pressure;Samples;Min_cycle;Max_cycle;Signal;HPM_P1;HPM_P2
2023/11/14 00:00:11;;;;;;;28.58;4.55;;;11.70;92.00;;;;;;6245317;28;20061;-84
2023/11/14 00:03:13;;;;;;;25.13;4.63;;;11.80;91.60;;;;;;6245304;28;20060;-84
2023/11/14 00:06:15;;;;;;;31.48;5.07;;;11.80;91.60;;;;;;6245606;28;20045;-84
2023/11/14 00:09:17;;;;;;;33.92;4.63;;;11.70;91.80;;;;;;6246286;28;20507;-83
2023/11/14 00:12:55;;;;;;;37.13;5.90;;;11.60;92.70;;;;;;6251189;28;20049;-84
2023/11/14 00:15:52;;;;;;;32.63;5.40;;;11.50;93.00;;;;;;6219168;28;20473;-83
2023/11/14 00:18:54;;;;;;;39.00;5.07;;;11.40;93.70;;;;;;6271756;28;20060;-86
2023/11/14 00:21:56;;;;;;;42.45;5.22;;;11.40;94.20;;;;;;6247356;28;20809;-83
2023/11/14 00:24:57;;;;;;;34.03;4.85;;;11.40;93.80;;;;;;6272386;28;20053;-84
2023/11/14 00:27:59;;;;;;;30.38;4.65;;;11.40;94.30;;;;;;6249544;28;20054;-83
2023/11/14 00:31:00;;;;;;;29.75;5.32;;;11.50;94.20;;;;;;6268612;28;20064;-84
2023/11/14 00:34:02;;;;;;;29.05;4.97;;;11.40;94.60;;;;;;6202105;28;20054;-82
2023/11/14 00:37:04;;;;;;;33.50;5.30;;;11.40;94.80;;;;;;6250177;28;20538;-84
2023/11/14 00:40:06;;;;;;;37.95;6.28;;;11.50;95.10;;;;;;6243100;28;20057;-82
2023/11/14 00:43:08;;;;;;;43.97;6.25;;;11.50;94.70;;;;;;6246204;28;20053;-82
2023/11/14 00:46:09;;;;;;;41.55;5.47;;;11.50;94.70;;;;;;6248605;28;20417;-83
2023/11/14 00:49:11;;;;;;;30.33;5.03;;;11.60;95.00;;;;;;6220085;28;20057;-82
2023/11/14 00:52:14;;;;;;;37.75;5.70;;;11.70;94.90;;;;;;6265857;28;20635;-83
2023/11/14 00:55:16;;;;;;;32.08;5.38;;;11.70;94.30;;;;;;6230685;28;20065;-84
2023/11/14 00:58:18;;;;;;;37.10;5.85;;;11.70;94.30;;;;;;6247780;28;20060;-81
2023/11/14 01:01:20;;;;;;;38.58;5.18;;;11.80;93.80;;;;;;6252974;28;20065;-83
2023/11/14 01:04:22;;;;;;;38.40;5.60;;;11.80;93.90;;;;;;6209689;28;20050;-82
2023/11/14 01:07:23;;;;;;;30.77;5.03;;;11.80;94.10;;;;;;6269509;28;20402;-83
2023/11/14 01:10:25;;;;;;;35.83;5.13;;;11.80;93.80;;;;;;6244812;28;20493;-86
2023/11/14 01:13:27;;;;;;;31.35;5.20;;;11.70;94.20;;;;;;6224237;28;20191;-84
2023/11/14 01:16:28;;;;;;;36.22;4.82;;;11.70;94.30;;;;;;6226621;28;20543;-83
2023/11/14 01:19:30;;;;;;;33.53;4.90;;;11.70;93.80;;;;;;6243907;28;20053;-83
2023/11/14 01:22:32;;;;;;;33.75;4.78;;;11.60;93.90;;;;;;6225717;28;20061;-83
2023/11/14 01:25:34;;;;;;;34.95;5.68;;;11.70;94.10;;;;;;6243513;28;20053;-83
2023/11/14 01:28:35;;;;;;;31.67;5.07;;;11.60;94.50;;;;;;6241423;28;20714;-82
2023/11/14 01:31:37;;;;;;;35.00;4.80;;;11.50;95.20;;;;;;6225527;28;20607;-83
2023/11/14 01:34:39;;;;;;;37.83;5.78;;;11.50;94.80;;;;;;6249662;28;20057;-82
2023/11/14 01:37:41;;;;;;;36.10;5.30;;;11.60;94.90;;;;;;6244013;28;20046;-83
2023/11/14 01:40:42;;;;;;;31.95;6.07;;;11.60;94.50;;;;;;6259643;28;20132;-83
2023/11/14 01:43:44;;;;;;;38.47;5.78;;;11.60;94.90;;;;;;6249877;28;20057;-83
2023/11/14 01:46:46;;;;;;;31.90;5.72;;;11.60;95.00;;;;;;6272433;28;20514;-82
2023/11/14 01:49:48;;;;;;;34.10;5.18;;;11.60;94.70;;;;;;6248637;28;20140;-83
2023/11/14 01:52:49;;;;;;;33.00;5.28;;;11.60;94.90;;;;;;6265216;28;20057;-84
2023/11/14 01:55:51;;;;;;;39.10;5.85;;;11.50;95.10;;;;;;6248158;28;20060;-83
2023/11/14 01:58:53;;;;;;;30.85;4.90;;;11.50;95.10;;;;;;6260730;28;20049;-83
2023/11/14 02:01:54;;;;;;;37.05;4.80;;;11.50;95.10;;;;;;6271920;28;20052;-84
2023/11/14 02:04:56;;;;;;;38.45;4.70;;;11.50;94.70;;;;;;6248199;28;20050;-82
2023/11/14 02:07:58;;;;;;;38.53;5.45;;;11.50;94.60;;;;;;6272024;28;20076;-83
2023/11/14 02:11:00;;;;;;;33.30;5.05;;;11.40;95.50;;;;;;6248339;28;20084;-83
2023/11/14 02:14:02;;;;;;;33.05;4.75;;;11.60;94.80;;;;;;6259690;28;20515;-83
2023/11/14 02:17:03;;;;;;;35.13;5.63;;;11.50;94.70;;;;;;6272230;28;20055;-84
2023/11/14 02:20:06;;;;;;;34.47;5.13;;;11.50;95.30;;;;;;6248771;28;20424;-83
2023/11/14 02:23:07;;;;;;;33.83;4.93;;;11.40;95.50;;;;;;6254624;28;20053;-84
2023/11/14 02:26:09;;;;;;;29.88;5.68;;;11.40;95.90;;;;;;6249228;28;20065;-82
2023/11/14 02:29:10;;;;;;;36.50;5.75;;;11.40;96.00;;;;;;6259454;28;20412;-82
2023/11/14 02:32:12;;;;;;;34.78;5.78;;;11.50;95.80;;;;;;6271635;28;20044;-83
2023/11/14 02:35:14;;;;;;;33.40;4.85;;;11.40;95.50;;;;;;6247687;28;20049;-83
2023/11/14 02:38:15;;;;;;;31.20;4.75;;;11.40;95.80;;;;;;6271421;28;20107;-82
2023/11/14 02:41:17;;;;;;;31.90;5.55;;;11.30;96.30;;;;;;6256280;28;20145;-82
2023/11/14 02:44:18;;;;;;;39.33;5.32;;;11.30;96.50;;;;;;6257180;28;20049;-83
2023/11/14 02:47:20;;;;;;;33.80;5.20;;;11.30;96.80;;;;;;6247792;28;20045;-83
2023/11/14 02:50:22;;;;;;;36.92;4.85;;;11.30;96.90;;;;;;6229237;28;20064;-82
2023/11/14 02:53:24;;;;;;;41.67;5.45;;;11.40;96.00;;;;;;6241516;28;20512;-82
2023/11/14 02:56:25;;;;;;;38.55;4.90;;;11.40;96.60;;;;;;6270181;28;20115;-82
2023/11/14 02:59:27;;;;;;;32.45;4.65;;;11.40;96.50;;;;;;6246626;28;20493;-83
2023/11/14 03:02:28;;;;;;;37.92;5.90;;;11.30;96.70;;;;;;6270437;28;20060;-83
2023/11/14 03:05:30;;;;;;;39.78;5.50;;;11.40;96.90;;;;;;6244839;28;20046;-82
2023/11/14 03:08:32;;;;;;;35.58;5.38;;;11.40;97.00;;;;;;6247153;28;20057;-82
2023/11/14 03:11:33;;;;;;;28.30;4.55;;;11.50;96.60;;;;;;6252731;28;20052;-82
2023/11/14 03:14:36;;;;;;;27.70;4.38;;;11.50;96.90;;;;;;6258897;28;20190;-82
2023/11/14 03:17:38;;;;;;;39.90;5.55;;;11.50;96.90;;;;;;6246809;28;20106;-83
2023/11/14 03:20:39;;;;;;;33.80;5.22;;;11.50;97.40;;;;;;6270603;28;20061;-83
2023/11/14 03:23:42;;;;;;;29.50;4.82;;;11.50;97.20;;;;;;6228953;28;20636;-81
2023/11/14 03:26:44;;;;;;;34.28;4.75;;;11.60;97.00;;;;;;6270591;28;20427;-81
2023/11/14 03:29:46;;;;;;;42.10;6.03;;;11.60;97.20;;;;;;6259390;28;20148;-82
2023/11/14 03:32:47;;;;;;;36.65;5.28;;;11.50;97.50;;;;;;6246424;28;20581;-82
2023/11/14 03:35:49;;;;;;;45.55;5.72;;;11.60;97.40;;;;;;6228176;28;20060;-84
2023/11/14 03:38:51;;;;;;;34.55;5.15;;;11.60;97.70;;;;;;6245548;28;20050;-83
2023/11/14 03:41:53;;;;;;;33.10;5.05;;;11.50;97.90;;;;;;6245351;28;20057;-83
2023/11/14 03:44:54;;;;;;;37.58;4.90;;;11.50;98.00;;;;;;6250347;28;20049;-83
2023/11/14 03:47:56;;;;;;;38.03;5.07;;;11.60;97.40;;;;;;6246066;28;20057;-83
2023/11/14 03:50:58;;;;;;;36.08;5.63;;;11.60;97.30;;;;;;6228251;28;20056;-82
2023/11/14 03:53:59;;;;;;;40.17;5.65;;;11.70;97.10;;;;;;6226463;28;20061;-84
2023/11/14 03:57:01;;;;;;;34.25;6.15;;;11.70;96.60;;;;;;6196969;28;20050;-82
2023/11/14 04:00:04;;;;;;;28.77;4.68;;;11.70;96.50;;;;;;6218816;28;20057;-83
2023/11/14 04:03:07;;;;;;;38.72;4.90;;;11.70;96.10;;;;;;6196388;28;20062;-84
2023/11/14 04:06:08;;;;;;;41.10;6.07;;;11.70;96.00;;;;;;6217628;28;20056;-82
2023/11/14 04:09:10;;;;;;;28.77;4.82;;;11.70;95.90;;;;;;6197053;28;20050;-83
2023/11/14 04:12:12;;;;;;;27.55;4.68;;;11.60;95.70;;;;;;6222029;28;20559;-83
2023/11/14 04:15:14;;;;;;;36.90;5.30;;;11.60;96.50;;;;;;6196317;28;20081;-81
2023/11/14 04:18:16;;;;;;;31.58;5.40;;;11.50;97.00;;;;;;6229570;28;20061;-83
2023/11/14 04:21:19;;;;;;;38.92;5.20;;;11.60;97.30;;;;;;6202284;28;20057;-83
2023/11/14 04:24:21;;;;;;;32.55;5.00;;;11.60;96.90;;;;;;6219785;28;20571;-83
2023/11/14 04:27:22;;;;;;;30.17;4.70;;;11.70;96.60;;;;;;6196322;28;20046;-83
2023/11/14 04:30:24;;;;;;;27.92;4.45;;;11.70;96.10;;;;;;6217603;28;20501;-83
2023/11/14 04:33:25;;;;;;;30.15;4.78;;;11.80;95.70;;;;;;6195998;28;20054;-81
2023/11/14 04:36:29;;;;;;;33.92;4.47;;;11.70;95.90;;;;;;6219212;28;20558;-83
2023/11/14 04:39:30;;;;;;;33.25;5.10;;;11.70;95.60;;;;;;6195539;28;20054;-84
2023/11/14 04:42:32;;;;;;;29.88;4.10;;;11.60;95.60;;;;;;6218997;28;20461;-83
2023/11/14 04:45:34;;;;;;;35.22;4.65;;;11.70;95.60;;;;;;6194776;28;20058;-83
2023/11/14 04:48:36;;;;;;;28.40;4.65;;;11.70;95.40;;;;;;6219247;28;20505;-84
2023/11/14 04:51:37;;;;;;;34.17;5.85;;;11.70;95.10;;;;;;6196005;28;20057;-83
2023/11/14 04:54:39;;;;;;;32.60;4.75;;;11.70;95.20;;;;;;6263588;28;20068;-85
2023/11/14 04:57:41;;;;;;;30.48;4.05;;;11.80;95.50;;;;;;6244956;28;20049;-86
2023/11/14 05:00:42;;;;;;;27.27;4.63;;;11.80;94.80;;;;;;6221353;28;20061;-84
2023/11/14 05:03:44;;;;;;;29.27;4.68;;;11.80;94.60;;;;;;6266392;28;20049;-85
2023/11/14 05:06:45;;;;;;;26.08;3.88;;;11.80;95.20;;;;;;6224502;28;20791;-84
2023/11/14 05:09:52;;;;;;;33.80;4.53;;;11.70;95.60;;;;;;6268940;28;20056;-84
2023/11/14 05:12:53;;;;;;;28.45;4.20;;;11.70;95.00;;;;;;6244303;28;20060;-85
2023/11/14 05:15:55;;;;;;;36.42;4.82;;;11.70;95.00;;;;;;6264720;28;20130;-85
2023/11/14 05:18:56;;;;;;;32.70;5.15;;;11.70;95.10;;;;;;6219592;28;20057;-84
2023/11/14 05:21:58;;;;;;;27.15;5.05;;;11.70;95.20;;;;;;6266270;28;20045;-85
2023/11/14 05:25:00;;;;;;;39.97;4.88;;;11.60;95.90;;;;;;6244618;28;20056;-86
2023/11/14 05:28:02;;;;;;;37.22;4.93;;;11.60;95.90;;;;;;6225506;28;20045;-85
2023/11/14 05:31:04;;;;;;;34.30;5.13;;;11.70;96.00;;;;;;6267612;28;20053;-84
2023/11/14 05:34:05;;;;;;;35.10;5.35;;;11.70;95.80;;;;;;6219621;28;20052;-87
2023/11/14 05:37:10;;;;;;;32.88;5.15;;;11.60;96.50;;;;;;6267101;28;20084;-85
2023/11/14 05:40:12;;;;;;;33.20;5.18;;;11.60;97.20;;;;;;6243818;28;20409;-84
2023/11/14 05:43:14;;;;;;;42.30;5.82;;;11.50;97.30;;;;;;6225118;28;20092;-84
2023/11/14 05:46:17;;;;;;;32.70;5.53;;;11.50;98.00;;;;;;6242446;28;20068;-85
2023/11/14 05:49:18;;;;;;;37.63;5.07;;;11.50;98.00;;;;;;6219309;28;20564;-84
2023/11/14 05:52:20;;;;;;;37.97;4.97;;;11.50;98.00;;;;;;6264271;28;20053;-84
2023/11/14 05:55:22;;;;;;;31.67;5.82;;;11.60;98.00;;;;;;6243821;28;20093;-84
2023/11/14 05:58:24;;;;;;;43.28;5.80;;;11.70;97.70;;;;;;6261838;28;20045;-85
2023/11/14 06:01:26;;;;;;;32.33;4.50;;;11.70;97.60;;;;;;6225888;28;20060;-85
2023/11/14 06:04:29;;;;;;;32.53;5.53;;;11.70;97.30;;;;;;6243470;28;20516;-83
2023/11/14 06:07:33;;;;;;;35.30;5.55;;;11.60;98.00;;;;;;6243356;28;20046;-84
2023/11/14 06:10:34;;;;;;;29.90;4.43;;;11.60;98.10;;;;;;6225712;28;20409;-83
2023/11/14 06:13:36;;;;;;;39.63;5.72;;;11.50;98.50;;;;;;6238195;28;20544;-83
2023/11/14 06:16:38;;;;;;;43.95;6.47;;;11.50;98.80;;;;;;6242994;28;20057;-83
2023/11/14 06:19:39;;;;;;;37.13;5.18;;;11.50;99.10;;;;;;6249656;28;20424;-83
2023/11/14 06:22:41;;;;;;;34.83;5.43;;;11.50;99.20;;;;;;6243802;28;20398;-82
2023/11/14 06:25:43;;;;;;;40.97;5.88;;;11.40;99.60;;;;;;6223946;28;20052;-82
2023/11/14 06:28:44;;;;;;;40.83;6.95;;;11.40;99.10;;;;;;6248487;28;20048;-83
2023/11/14 06:31:46;;;;;;;44.30;5.40;;;11.40;99.40;;;;;;6270460;28;20056;-83
2023/11/14 06:34:51;;;;;;;37.47;5.70;;;11.50;98.70;;;;;;6247874;28;20083;-83
2023/11/14 06:37:55;;;;;;;36.65;5.38;;;11.50;99.00;;;;;;6271790;28;20130;-83
2023/11/14 06:40:58;;;;;;;39.78;5.45;;;11.50;98.80;;;;;;6247616;28;20068;-82
2023/11/14 06:44:00;;;;;;;37.80;5.28;;;11.60;98.40;;;;;;6260896;28;20072;-84
2023/11/14 06:47:02;;;;;;;43.60;5.68;;;11.60;98.00;;;;;;6272542;28;20132;-83
2023/11/14 06:50:05;;;;;;;41.25;5.22;;;11.70;97.40;;;;;;6248024;28;20159;-82
2023/11/14 06:53:07;;;;;;;43.72;5.95;;;11.70;97.10;;;;;;6262594;28;20235;-83
2023/11/14 06:56:09;;;;;;;39.20;5.63;;;11.70;97.20;;;;;;6229621;28;20527;-84
2023/11/14 06:59:10;;;;;;;31.17;5.28;;;11.70;96.90;;;;;;6243326;28;20140;-84
2023/11/14 07:02:12;;;;;;;28.45;5.40;;;11.60;97.40;;;;;;6271500;28;20060;-84
2023/11/14 07:05:14;;;;;;;26.83;4.80;;;11.50;97.60;;;;;;6229682;28;20057;-84
2023/11/14 07:08:15;;;;;;;34.85;5.05;;;11.40;98.10;;;;;;6271080;28;20075;-85
2023/11/14 07:11:17;;;;;;;36.38;5.70;;;11.50;98.00;;;;;;6249119;28;20071;-83
2023/11/14 07:14:24;;;;;;;42.05;5.38;;;11.40;98.10;;;;;;6255746;28;20054;-83
2023/11/14 07:17:25;;;;;;;30.80;4.68;;;11.40;98.30;;;;;;6204945;28;20061;-83
2023/11/14 07:20:28;;;;;;;34.30;5.03;;;11.30;98.60;;;;;;6252513;28;20067;-84
2023/11/14 07:23:30;;;;;;;32.83;5.07;;;11.30;98.60;;;;;;6228951;28;20060;-84
2023/11/14 07:26:31;;;;;;;33.92;4.75;;;11.30;99.10;;;;;;6260656;28;20045;-84
2023/11/14 07:29:33;;;;;;;37.88;5.28;;;11.30;98.50;;;;;;6254264;28;20144;-82
2023/11/14 07:32:35;;;;;;;29.80;5.00;;;11.30;98.60;;;;;;6269842;28;20496;-83
2023/11/14 07:35:37;;;;;;;39.20;5.10;;;11.30;98.50;;;;;;6229377;28;20698;-84
2023/11/14 07:38:39;;;;;;;36.13;5.03;;;11.30;98.40;;;;;;6270636;28;20063;-83
2023/11/14 07:41:41;;;;;;;36.50;5.15;;;11.30;99.10;;;;;;6228475;28;20496;-81
2023/11/14 07:44:43;;;;;;;34.83;5.60;;;11.40;98.40;;;;;;6254714;28;20501;-83
2023/11/14 07:47:44;;;;;;;37.60;6.07;;;11.40;98.60;;;;;;6270326;28;20050;-82
2023/11/14 07:50:47;;;;;;;32.55;4.82;;;11.40;99.00;;;;;;6246121;28;20054;-81
2023/11/14 07:53:49;;;;;;;29.27;5.50;;;11.50;99.00;;;;;;6263513;28;20138;-81
2023/11/14 07:56:51;;;;;;;40.65;4.40;;;11.60;98.80;;;;;;6246313;28;20188;-83
2023/11/14 07:59:53;;;;;;;27.38;3.90;;;11.70;98.60;;;;;;6268698;28;20049;-81
2023/11/14 08:02:54;;;;;;;27.00;4.28;;;11.80;98.50;;;;;;6245997;28;20049;-82
2023/11/14 08:05:56;;;;;;;27.88;4.03;;;11.80;98.40;;;;;;6270878;28;20060;-84
2023/11/14 08:08:58;;;;;;;26.25;3.10;;;12.00;98.10;;;;;;6246408;28;20046;-84
2023/11/14 08:12:00;;;;;;;23.42;3.38;;;12.10;97.70;;;;;;6229523;28;20053;-85
2023/11/14 08:15:02;;;;;;;31.65;3.63;;;12.20;97.20;;;;;;6269335;28;20488;-82
2023/11/14 08:18:03;;;;;;;25.05;3.70;;;12.30;97.20;;;;;;6245447;28;20049;-81
2023/11/14 08:21:05;;;;;;;21.13;3.58;;;12.40;97.00;;;;;;6226847;28;20049;-80
2023/11/14 08:24:07;;;;;;;28.63;4.05;;;12.40;97.00;;;;;;6233853;28;20068;-81
2023/11/14 08:27:08;;;;;;;27.55;3.70;;;12.40;96.50;;;;;;6226250;28;20061;-80
2023/11/14 08:30:10;;;;;;;30.73;3.67;;;12.50;97.10;;;;;;6248619;28;20060;-78
2023/11/14 08:33:12;;;;;;;23.75;3.53;;;12.40;97.00;;;;;;6243474;28;20798;-79
2023/11/14 08:36:14;;;;;;;31.40;3.38;;;12.40;97.00;;;;;;6268841;28;20424;-80
2023/11/14 08:39:16;;;;;;;27.00;4.38;;;12.50;96.50;;;;;;6226175;28;20057;-80
2023/11/14 08:42:18;;;;;;;26.52;3.97;;;12.50;96.60;;;;;;6244164;28;20057;-83
2023/11/14 08:45:19;;;;;;;24.63;3.83;;;12.50;96.10;;;;;;6242820;28;20057;-81
2023/11/14 08:48:21;;;;;;;28.38;5.30;;;12.60;96.30;;;;;;6250108;28;20052;-80
2023/11/14 08:51:23;;;;;;;24.55;3.72;;;12.70;95.80;;;;;;6244612;28;20057;-81
2023/11/14 08:54:24;;;;;;;24.88;2.78;;;12.70;95.00;;;;;;6268937;28;20060;-83
2023/11/14 08:57:26;;;;;;;24.55;3.13;;;12.70;95.40;;;;;;6229415;28;20239;-80
2023/11/14 09:00:35;;;;;;;23.63;3.15;;;12.80;95.40;;;;;;6254024;28;20148;-81
2023/11/14 09:03:37;;;;;;;24.25;3.35;;;12.70;95.20;;;;;;6219992;28;20192;-80
2023/11/14 09:06:39;;;;;;;32.58;3.80;;;12.70;95.00;;;;;;6267323;28;20060;-80
2023/11/14 09:09:41;;;;;;;29.08;3.40;;;12.70;95.60;;;;;;6244500;28;20072;-78
2023/11/14 09:12:42;;;;;;;25.60;3.47;;;12.70;95.40;;;;;;6267208;28;20556;-82
2023/11/14 09:15:44;;;;;;;24.75;3.35;;;12.70;95.60;;;;;;6244783;28;20060;-77
2023/11/14 09:18:46;;;;;;;29.15;3.75;;;12.70;95.50;;;;;;6243785;28;20152;-77
2023/11/14 09:21:48;;;;;;;18.63;2.80;;;12.70;95.90;;;;;;6267851;28;20091;-82
2023/11/14 09:24:51;;;;;;;22.73;3.92;;;12.70;96.10;;;;;;6224183;28;20547;-78
2023/11/14 09:27:53;;;;;;;27.58;3.85;;;12.70;95.40;;;;;;6267093;28;20060;-77
2023/11/14 09:30:54;;;;;;;33.50;3.72;;;12.70;95.20;;;;;;6236665;28;20054;-79
2023/11/14 09:33:56;;;;;;;25.52;3.65;;;12.70;95.60;;;;;;6221037;28;20045;-79
2023/11/14 09:36:57;;;;;;;19.92;3.22;;;12.70;95.60;;;;;;6249713;28;20053;-80
2023/11/14 09:39:59;;;;;;;23.90;4.05;;;12.70;95.40;;;;;;6226029;28;20049;-83
2023/11/14 09:43:01;;;;;;;25.15;4.25;;;12.70;95.70;;;;;;6265207;28;20535;-82
2023/11/14 09:46:02;;;;;;;26.65;3.67;;;12.70;95.30;;;;;;6224971;28;20413;-84
2023/11/14 09:49:04;;;;;;;28.00;5.18;;;12.70;95.80;;;;;;6245524;28;20046;-83
2023/11/14 09:52:06;;;;;;;26.70;4.53;;;12.70;95.20;;;;;;6275930;28;20115;-89
2023/11/14 09:55:11;;;;;;;26.25;3.55;;;12.70;95.60;;;;;;6236247;28;20049;-88
2023/11/14 09:58:12;;;;;;;30.77;3.97;;;12.70;95.40;;;;;;6250305;28;20109;-86
2023/11/14 10:01:14;;;;;;;34.08;4.82;;;12.70;95.10;;;;;;6229433;28;20417;-81
2023/11/14 10:04:16;;;;;;;27.60;4.75;;;12.70;95.50;;;;;;6232227;28;20064;-83
2023/11/14 10:07:19;;;;;;;31.13;4.05;;;12.70;95.50;;;;;;6277321;28;20041;-89
2023/11/14 10:10:21;;;;;;;26.83;4.18;;;12.80;95.10;;;;;;6253016;28;20065;-88
2023/11/14 10:13:23;;;;;;;27.25;3.65;;;12.80;95.20;;;;;;6247731;28;20045;-79
2023/11/14 10:16:24;;;;;;;22.05;3.30;;;12.80;95.10;;;;;;6230071;28;20057;-77
2023/11/14 10:19:26;;;;;;;16.05;3.97;;;12.80;95.10;;;;;;6271197;28;20053;-78
2023/11/14 10:22:28;;;;;;;22.75;3.55;;;12.90;94.80;;;;;;6246162;28;20528;-80
2023/11/14 10:25:29;;;;;;;24.48;4.53;;;12.90;94.90;;;;;;6271758;28;20056;-78
2023/11/14 10:28:31;;;;;;;24.63;3.60;;;12.90;95.20;;;;;;6247754;28;20096;-78
2023/11/14 10:31:36;;;;;;;19.80;3.38;;;12.90;95.00;;;;;;6272426;28;20072;-77
2023/11/14 10:34:38;;;;;;;27.52;3.65;;;12.90;95.10;;;;;;6222635;28;20057;-78
2023/11/14 10:37:40;;;;;;;26.50;3.95;;;13.00;95.30;;;;;;6240444;28;20058;-78
2023/11/14 10:40:42;;;;;;;28.45;3.25;;;13.00;95.60;;;;;;6233729;28;20053;-85
2023/11/14 10:43:44;;;;;;;27.67;3.85;;;13.00;95.70;;;;;;6245566;28;20053;-85
2023/11/14 10:46:45;;;;;;;33.58;3.85;;;13.00;96.20;;;;;;6271852;28;20357;-78
2023/11/14 10:49:47;;;;;;;34.70;4.05;;;13.00;96.20;;;;;;6247343;28;20049;-77
2023/11/14 10:52:49;;;;;;;36.92;4.50;;;13.00;97.60;;;;;;6266176;28;20049;-77
2023/11/14 10:55:52;;;;;;;29.65;4.22;;;12.90;98.70;;;;;;6266761;28;20053;-82
2023/11/14 10:58:54;;;;;;;21.70;3.70;;;12.80;99.90;;;;;;6225992;28;20057;-78
2023/11/14 11:01:56;;;;;;;34.13;4.82;;;12.70;99.90;;;;;;6270547;28;20056;-78
2023/11/14 11:04:57;;;;;;;38.08;5.60;;;12.70;99.90;;;;;;6246858;28;20063;-77
2023/11/14 11:07:59;;;;;;;35.92;5.65;;;12.70;99.90;;;;;;6228588;28;20053;-77
2023/11/14 11:11:03;;;;;;;45.28;6.72;;;12.60;99.90;;;;;;6246353;28;20053;-81
2023/11/14 11:14:04;;;;;;;35.63;6.22;;;12.70;99.90;;;;;;6242371;28;20132;-78
2023/11/14 11:17:06;;;;;;;40.20;6.28;;;12.60;99.90;;;;;;6245391;28;20139;-78
2023/11/14 11:20:08;;;;;;;33.92;6.20;;;12.50;99.90;;;;;;6252088;28;20147;-80
2023/11/14 11:23:13;;;;;;;48.20;6.88;;;12.50;99.90;;;;;;6232804;28;20045;-78
2023/11/14 11:26:15;;;;;;;39.05;6.93;;;12.40;99.90;;;;;;6270263;28;20052;-79
2023/11/14 11:29:19;;;;;;;40.78;7.05;;;12.30;99.90;;;;;;6252901;28;20060;-78
2023/11/14 11:32:21;;;;;;;36.83;6.15;;;12.30;99.90;;;;;;6246108;28;20144;-77
2023/11/14 11:35:23;;;;;;;45.05;6.55;;;12.30;99.90;;;;;;6269560;28;20127;-79
2023/11/14 11:38:24;;;;;;;43.42;6.32;;;12.30;99.90;;;;;;6269646;28;20664;-78
2023/11/14 11:41:26;;;;;;;35.80;6.50;;;12.20;99.90;;;;;;6223111;28;20072;-77
2023/11/14 11:44:28;;;;;;;38.97;5.93;;;12.20;99.90;;;;;;6256969;28;20065;-79
2023/11/14 11:47:29;;;;;;;37.58;5.85;;;12.20;99.90;;;;;;6232905;28;20459;-79
2023/11/14 11:50:32;;;;;;;29.80;5.78;;;12.10;99.90;;;;;;6228926;28;20674;-83
2023/11/14 11:53:35;;;;;;;32.42;5.45;;;12.10;99.90;;;;;;6253431;28;20109;-82
2023/11/14 11:56:36;;;;;;;31.20;4.88;;;12.10;99.90;;;;;;6245928;28;20092;-81
2023/11/14 11:59:38;;;;;;;26.33;4.40;;;12.00;99.90;;;;;;6253809;28;20068;-84
2023/11/14 12:02:40;;;;;;;25.63;4.90;;;11.90;99.90;;;;;;6251861;28;20060;-83
2023/11/14 12:05:42;;;;;;;21.52;4.13;;;11.80;99.90;;;;;;6246429;28;20144;-94
2023/11/14 12:08:44;;;;;;;21.38;4.20;;;11.80;99.90;;;;;;6245570;28;20061;-82
2023/11/14 12:11:46;;;;;;;25.98;4.35;;;11.70;99.90;;;;;;6231679;28;20064;-94
2023/11/14 12:14:48;;;;;;;24.63;4.63;;;11.60;99.90;;;;;;6259682;28;20072;-79
2023/11/14 12:17:50;;;;;;;30.67;5.00;;;11.60;99.90;;;;;;6227117;28;20061;-81
2023/11/14 12:20:52;;;;;;;20.35;3.90;;;11.60;99.90;;;;;;6268560;28;20408;-79
2023/11/14 12:23:54;;;;;;;21.08;4.15;;;11.60;99.90;;;;;;6255967;28;20049;-81
2023/11/14 12:26:57;;;;;;;26.67;4.43;;;11.50;99.90;;;;;;6245000;28;20493;-82
2023/11/14 12:30:01;;;;;;;24.33;4.00;;;11.50;99.90;;;;;;6243535;28;20628;-81
2023/11/14 12:33:03;;;;;;;18.67;3.90;;;11.50;99.90;;;;;;6268561;28;20053;-86
2023/11/14 12:36:06;;;;;;;15.20;2.53;;;11.40;99.90;;;;;;6247296;28;20049;-81
2023/11/14 12:39:07;;;;;;;9.05;1.63;;;11.20;99.90;;;;;;6226893;28;20061;-81
2023/11/14 12:42:11;;;;;;;6.82;1.40;;;11.00;99.90;;;;;;6243813;28;20144;-80
2023/11/14 12:45:12;;;;;;;9.73;1.52;;;10.80;99.90;;;;;;6241454;28;20057;-81
2023/11/14 12:48:14;;;;;;;8.13;1.77;;;10.80;99.90;;;;;;6243670;28;20421;-82
2023/11/14 12:51:16;;;;;;;7.25;1.30;;;10.70;99.90;;;;;;6244910;28;20049;-81
2023/11/14 12:54:17;;;;;;;8.45;1.60;;;10.60;99.90;;;;;;6202013;28;20053;-80
2023/11/14 12:57:19;;;;;;;5.97;1.40;;;10.60;99.90;;;;;;6237739;28;20144;-81
2023/11/14 13:00:21;;;;;;;5.82;1.40;;;10.50;99.90;;;;;;6219313;28;20058;-80
2023/11/14 13:03:22;;;;;;;7.03;1.30;;;10.50;99.90;;;;;;6244010;28;20048;-82
2023/11/14 13:06:25;;;;;;;7.75;1.63;;;10.40;99.90;;;;;;6231192;28;20057;-87
2023/11/14 13:09:28;;;;;;;8.77;1.38;;;10.40;99.90;;;;;;6229097;28;20049;-87
2023/11/14 13:12:31;;;;;;;10.80;1.73;;;10.30;99.90;;;;;;6221567;28;20509;-86
2023/11/14 13:15:33;;;;;;;8.82;2.10;;;10.40;99.90;;;;;;6261597;28;20072;-88
2023/11/14 13:18:36;;;;;;;8.43;1.92;;;10.40;99.90;;;;;;6206976;28;20062;-88
2023/11/14 13:21:38;;;;;;;7.22;1.95;;;10.30;99.90;;;;;;6243404;28;20041;-84
2023/11/14 13:24:40;;;;;;;10.45;1.88;;;10.20;99.90;;;;;;6239154;28;20050;-88
2023/11/14 13:27:42;;;;;;;7.18;1.55;;;10.20;99.90;;;;;;6247082;28;20073;-84
2023/11/14 13:30:43;;;;;;;6.10;1.65;;;10.20;99.90;;;;;;6221328;28;20049;-84
2023/11/14 13:37:02;;;;;;;6.10;1.33;;;10.30;99.90;;;;;;6457554;22;20045;-83
2023/11/14 13:40:05;;;;;;;7.82;1.55;;;10.30;99.90;;;;;;6271779;28;20049;-88
2023/11/14 13:43:09;;;;;;;6.95;1.67;;;10.30;99.90;;;;;;6251490;28;20056;-86
2023/11/14 13:46:12;;;;;;;6.32;1.60;;;10.30;99.90;;;;;;6268165;28;20049;-84
2023/11/14 13:49:27;;;;;;;6.63;1.33;;;10.30;99.90;;;;;;6223563;28;20201;-82
2023/11/14 13:52:29;;;;;;;4.65;1.30;;;10.30;99.90;;;;;;6274820;28;20057;-84
2023/11/14 13:55:31;;;;;;;5.95;1.52;;;10.30;99.90;;;;;;6255957;28;20050;-89
2023/11/14 13:58:35;;;;;;;5.95;1.40;;;10.30;99.90;;;;;;6265635;28;20072;-85
2023/11/14 14:01:37;;;;;;;6.80;1.33;;;10.40;99.90;;;;;;6280848;28;20045;-84
2023/11/14 14:04:38;;;;;;;5.63;1.15;;;10.40;99.90;;;;;;6258387;28;20073;-86
2023/11/14 14:07:44;;;;;;;4.15;1.02;;;10.50;99.90;;;;;;6236894;28;20069;-85
2023/11/14 14:10:46;;;;;;;6.95;1.48;;;10.60;99.90;;;;;;6229409;28;20056;-84
2023/11/14 14:13:48;;;;;;;4.68;1.10;;;10.50;99.90;;;;;;6279930;28;20049;-91
2023/11/14 14:16:50;;;;;;;5.25;1.20;;;10.50;99.90;;;;;;6252958;28;20072;-86
2023/11/14 14:19:52;;;;;;;7.05;1.30;;;10.50;99.90;;;;;;6256015;28;20063;-83
2023/11/14 14:22:54;;;;;;;5.60;1.30;;;10.50;99.90;;;;;;6231876;28;20080;-83
2023/11/14 14:25:57;;;;;;;6.55;1.48;;;10.60;99.90;;;;;;6276545;28;20056;-88
2023/11/14 14:28:59;;;;;;;5.65;1.35;;;10.60;99.90;;;;;;6266811;28;20049;-83
2023/11/14 14:32:01;;;;;;;4.20;1.20;;;10.70;99.90;;;;;;6271447;28;20056;-82
2023/11/14 14:35:03;;;;;;;3.47;1.00;;;10.80;99.90;;;;;;6266631;28;20121;-90
2023/11/14 14:38:05;;;;;;;4.93;1.25;;;10.80;99.90;;;;;;6270035;28;20041;-90
2023/11/14 14:41:07;;;;;;;5.90;1.23;;;10.70;99.90;;;;;;6256105;28;20053;-85
2023/11/14 14:44:12;;;;;;;4.22;1.58;;;10.70;99.90;;;;;;6392474;22;21377;-86
2023/11/14 14:47:15;;;;;;;6.00;1.20;;;10.60;99.90;;;;;;6216398;28;20061;-89
2023/11/14 14:50:17;;;;;;;5.63;1.75;;;10.60;99.90;;;;;;6265628;28;20139;-90
2023/11/14 14:53:19;;;;;;;5.03;1.05;;;10.50;99.90;;;;;;6227845;28;20053;-92
2023/11/14 14:56:22;;;;;;;5.43;1.30;;;10.50;99.90;;;;;;6269010;28;20104;-91
2023/11/14 14:59:24;;;;;;;4.18;1.30;;;10.50;99.90;;;;;;6252226;28;20113;-90
2023/11/14 15:02:26;;;;;;;4.82;1.55;;;10.50;99.90;;;;;;6243924;28;20508;-89
2023/11/14 15:05:34;;;;;;;4.20;1.27;;;10.50;99.90;;;;;;6265341;28;20045;-89
2023/11/14 15:08:37;;;;;;;4.60;1.20;;;10.60;99.90;;;;;;6243691;28;20080;-86
2023/11/14 15:11:39;;;;;;;4.72;1.40;;;10.60;99.90;;;;;;6258708;28;20072;-86
2023/11/14 15:14:42;;;;;;;4.78;1.40;;;10.60;99.90;;;;;;6252380;28;20072;-88
2023/11/14 15:17:46;;;;;;;4.75;1.60;;;10.50;99.90;;;;;;6233199;28;20061;-82
2023/11/14 15:20:49;;;;;;;4.82;1.30;;;10.50;99.90;;;;;;6250055;28;20547;-86
2023/11/14 15:23:52;;;;;;;5.93;1.45;;;10.50;99.90;;;;;;6257620;28;20046;-90
2023/11/14 15:26:53;;;;;;;4.97;1.48;;;10.50;99.90;;;;;;6219491;28;20081;-91
2023/11/14 15:29:59;;;;;;;5.70;1.30;;;10.40;99.90;;;;;;6257315;28;20485;-92
2023/11/14 15:33:01;;;;;;;4.55;1.20;;;10.40;99.90;;;;;;6246975;28;20424;-86
2023/11/14 15:36:05;;;;;;;6.38;1.30;;;10.20;99.90;;;;;;6229990;28;20060;-88
2023/11/14 15:39:09;;;;;;;5.68;1.52;;;10.20;99.90;;;;;;6256078;28;20040;-83